SBOSBO DEN / KDEN
Speedbird OnlineSpeedbird Online DEN / KDEN

Denver International Airport
16:23 6.9°C

Location Denver, United States
Latitude: 39.861698150635
Longitude: -104.672996521
Web Airport Website | Wikipedia
Altitude 1655 Meter / 5431 Feet
Distance 7,527 KM / 4,677 Miles
from London.
Time Zone UTC -7 hours (America/Denver)
Codes IATA: DEN
ICAO: KDEN
Currency £1 equals USD 1.21
Runways
RunwayLength (m)Surface
073658Concrete
083658Concrete
16L3658Concrete
16R4877Concrete
17L3658Concrete
17R3658Concrete
253658Concrete
263658Concrete
34L4877Concrete
34R3658Concrete
35L3658Concrete
35R3658Concrete
Radio
TypeDescriptionFrequency
APPAPP119.3
ATISATIS125.6
CLDCLNC DEL118.75
DEPDEP126.1
GNDGND121.85
RDORDO123.65
TWRTWR124.3
UNICUNICOM122.95
Live ATC
METAR KDEN 081353Z 21010KT 10SM FEW220 M06/M10 A3005 RMK AO2 SLP206 T10561100
TAF KDEN 081315Z 0813/0918 23008KT P6SM FEW220 FM081900 31012KT P6SM SCT220 FM090300 34015G22KT P6SM SCT050 BKN080 FM090500 35015G25KT P6SM SCT035 BKN050 PROB30 0905/0907 2SM -SHSN BKN030 FM090700 35015G22KT P6SM BKN100
Weather As Of 08 Feb 2023 16:23
Description Scattered clouds
Wind 20 km/h from North-West (330°)
Cloud Cover 40%
Precipitation Rain: none, Snow: none
Sunrise 07:00
Sunset 17:25
Lounges American Airlines Admirals Club, Jeppesen Terminal
Rotations During the last 90 days there were
25 flights from LHR
20 flights to LHR



Support Speedbird Online

© 2017-2023 Speedbird Online